sensor_id;sensor_type;location;lat;lon;timestamp;temperature;humidity
2611;DHT22;5612;51.134;17.058;2023-03-02T00:01:54;-0.10;1.00
2611;DHT22;5612;51.134;17.058;2023-03-02T00:04:28;-0.10;99.90
2611;DHT22;5612;51.134;17.058;2023-03-02T00:07:02;-0.10;99.90
2611;DHT22;5612;51.134;17.058;2023-03-02T00:09:31;-0.20;99.90
2611;DHT22;5612;51.134;17.058;2023-03-02T00:12:01;-0.30;99.90
2611;DHT22;5612;51.134;17.058;2023-03-02T00:14:31;-0.30;1.00
2611;DHT22;5612;51.134;17.058;2023-03-02T00:17:01;-0.30;99.90
2611;DHT22;5612;51.134;17.058;2023-03-02T00:19:30;-0.40;1.00
2611;DHT22;5612;51.134;17.058;2023-03-02T00:21:59;-0.40;1.00
2611;DHT22;5612;51.134;17.058;2023-03-02T00:24:30;-0.40;99.90
2611;DHT22;5612;51.134;17.058;2023-03-02T00:26:59;-0.40;1.00
2611;DHT22;5612;51.134;17.058;2023-03-02T00:29:27;-0.40;1.00
2611;DHT22;5612;51.134;17.058;2023-03-02T00:31:56;-0.40;1.00
2611;DHT22;5612;51.134;17.058;2023-03-02T00:34:27;-0.40;1.00
2611;DHT22;5612;51.134;17.058;2023-03-02T00:36:58;-0.50;1.00
2611;DHT22;5612;51.134;17.058;2023-03-02T00:39:27;-0.50;1.00
2611;DHT22;5612;51.134;17.058;2023-03-02T00:41:56;-0.40;1.00
2611;DHT22;5612;51.134;17.058;2023-03-02T00:44:25;-0.40;99.90
2611;DHT22;5612;51.134;17.058;2023-03-02T00:46:54;-0.50;1.00
2611;DHT22;5612;51.134;17.058;2023-03-02T00:49:23;-0.50;99.90
2611;DHT22;5612;51.134;17.058;2023-03-02T00:51:53;-0.60;1.00
2611;DHT22;5612;51.134;17.058;2023-03-02T00:54:22;-0.60;1.00
2611;DHT22;5612;51.134;17.058;2023-03-02T00:56:51;-0.60;1.00
2611;DHT22;5612;51.134;17.058;2023-03-02T00:59:19;-0.60;1.00
2611;DHT22;5612;51.134;17.058;2023-03-02T01:01:54;-0.60;1.00
2611;DHT22;5612;51.134;17.058;2023-03-02T01:04:25;-0.60;1.00
2611;DHT22;5612;51.134;17.058;2023-03-02T01:07:00;-0.60;1.00
2611;DHT22;5612;51.134;17.058;2023-03-02T01:09:30;-0.60;1.00
2611;DHT22;5612;51.134;17.058;2023-03-02T01:11:59;-0.70;1.00
2611;DHT22;5612;51.134;17.058;2023-03-02T01:14:28;-0.70;1.00
2611;DHT22;5612;51.134;17.058;2023-03-02T01:16:57;-0.80;1.00
2611;DHT22;5612;51.134;17.058;2023-03-02T01:19:26;-0.70;1.00
2611;DHT22;5612;51.134;17.058;2023-03-02T01:21:54;-0.70;1.00
2611;DHT22;5612;51.134;17.058;2023-03-02T01:24:25;-0.90;1.00
2611;DHT22;5612;51.134;17.058;2023-03-02T01:26:53;-0.90;1.00
2611;DHT22;5612;51.134;17.058;2023-03-02T01:29:22;-0.90;1.00
2611;DHT22;5612;51.134;17.058;2023-03-02T01:31:51;-0.90;1.00
2611;DHT22;5612;51.134;17.058;2023-03-02T01:34:20;-0.90;1.00
2611;DHT22;5612;51.134;17.058;2023-03-02T01:36:49;-0.90;1.00
2611;DHT22;5612;51.134;17.058;2023-03-02T01:39:17;-0.90;1.00
2611;DHT22;5612;51.134;17.058;2023-03-02T01:41:51;-0.90;1.00
2611;DHT22;5612;51.134;17.058;2023-03-02T01:44:38;-1.00;1.00
2611;DHT22;5612;51.134;17.058;2023-03-02T01:47:13;-1.00;1.00
2611;DHT22;5612;51.134;17.058;2023-03-02T01:49:47;-1.00;1.00
2611;DHT22;5612;51.134;17.058;2023-03-02T01:52:17;-1.10;20.50
2611;DHT22;5612;51.134;17.058;2023-03-02T01:54:47;-1.20;99.90
2611;DHT22;5612;51.134;17.058;2023-03-02T01:57:24;-1.20;86.60
2611;DHT22;5612;51.134;17.058;2023-03-02T01:59:58;-1.20;99.90
2611;DHT22;5612;51.134;17.058;2023-03-02T02:02:28;-1.20;99.90
2611;DHT22;5612;51.134;17.058;2023-03-02T02:04:57;-1.20;99.90
2611;DHT22;5612;51.134;17.058;2023-03-02T02:07:26;-1.30;99.90
2611;DHT22;5612;51.134;17.058;2023-03-02T02:09:55;-1.40;1.00
2611;DHT22;5612;51.134;17.058;2023-03-02T02:12:26;-1.40;99.90
2611;DHT22;5612;51.134;17.058;2023-03-02T02:14:54;-1.40;99.90
2611;DHT22;5612;51.134;17.058;2023-03-02T02:17:27;-1.30;77.10
2611;DHT22;5612;51.134;17.058;2023-03-02T02:20:04;-1.20;1.00
2611;DHT22;5612;51.134;17.058;2023-03-02T02:22:46;-1.20;1.00
2611;DHT22;5612;51.134;17.058;2023-03-02T02:25:27;-1.40;99.90
2611;DHT22;5612;51.134;17.058;2023-03-02T02:28:01;-1.40;99.90
2611;DHT22;5612;51.134;17.058;2023-03-02T02:30:30;-1.40;99.90
2611;DHT22;5612;51.134;17.058;2023-03-02T02:33:00;-1.30;99.90
2611;DHT22;5612;51.134;17.058;2023-03-02T02:35:33;-1.30;1.00
2611;DHT22;5612;51.134;17.058;2023-03-02T02:38:06;-1.20;1.00
2611;DHT22;5612;51.134;17.058;2023-03-02T02:40:42;-1.20;17.60
2611;DHT22;5612;51.134;17.058;2023-03-02T02:43:17;-1.20;1.00
2611;DHT22;5612;51.134;17.058;2023-03-02T02:45:48;-1.30;1.00
2611;DHT22;5612;51.134;17.058;2023-03-02T02:48:21;-1.60;99.90
2611;DHT22;5612;51.134;17.058;2023-03-02T02:50:51;-1.70;1.00
2611;DHT22;5612;51.134;17.058;2023-03-02T02:53:39;-1.70;1.00
2611;DHT22;5612;51.134;17.058;2023-03-02T02:56:10;-1.70;99.90
2611;DHT22;5612;51.134;17.058;2023-03-02T02:58:43;-1.60;99.90
2611;DHT22;5612;51.134;17.058;2023-03-02T03:01:15;-1.70;99.90
2611;DHT22;5612;51.134;17.058;2023-03-02T03:03:49;-1.70;99.90
2611;DHT22;5612;51.134;17.058;2023-03-02T03:06:21;-1.60;99.90
2611;DHT22;5612;51.134;17.058;2023-03-02T03:08:59;-1.70;99.90
2611;DHT22;5612;51.134;17.058;2023-03-02T03:11:30;-1.70;99.90
2611;DHT22;5612;51.134;17.058;2023-03-02T03:14:03;-1.70;99.90
2611;DHT22;5612;51.134;17.058;2023-03-02T03:16:34;-1.70;99.90
2611;DHT22;5612;51.134;17.058;2023-03-02T03:19:12;-1.80;99.90
2611;DHT22;5612;51.134;17.058;2023-03-02T03:21:42;-1.90;99.90
2611;DHT22;5612;51.134;17.058;2023-03-02T03:24:11;-1.90;99.90
2611;DHT22;5612;51.134;17.058;2023-03-02T03:26:40;-1.90;1.00
2611;DHT22;5612;51.134;17.058;2023-03-02T03:29:10;-1.80;99.90
2611;DHT22;5612;51.134;17.058;2023-03-02T03:31:39;-1.70;1.00
2611;DHT22;5612;51.134;17.058;2023-03-02T03:34:08;-1.70;1.00
2611;DHT22;5612;51.134;17.058;2023-03-02T03:36:37;-1.70;99.90
2611;DHT22;5612;51.134;17.058;2023-03-02T03:39:06;-1.70;99.90
2611;DHT22;5612;51.134;17.058;2023-03-02T03:41:36;-1.70;99.90
2611;DHT22;5612;51.134;17.058;2023-03-02T03:44:05;-1.70;99.90
2611;DHT22;5612;51.134;17.058;2023-03-02T03:46:35;-1.70;99.90
2611;DHT22;5612;51.134;17.058;2023-03-02T03:49:04;-1.70;99.90
2611;DHT22;5612;51.134;17.058;2023-03-02T03:51:33;-1.70;99.90
2611;DHT22;5612;51.134;17.058;2023-03-02T03:54:03;-1.70;99.90
2611;DHT22;5612;51.134;17.058;2023-03-02T03:56:36;-1.70;74.80
2611;DHT22;5612;51.134;17.058;2023-03-02T03:59:08;-1.70;76.50
2611;DHT22;5612;51.134;17.058;2023-03-02T04:01:41;-1.80;47.10
2611;DHT22;5612;51.134;17.058;2023-03-02T04:04:14;-1.90;99.90
2611;DHT22;5612;51.134;17.058;2023-03-02T04:06:43;-2.00;99.90
2611;DHT22;5612;51.134;17.058;2023-03-02T04:09:12;-1.90;99.90
2611;DHT22;5612;51.134;17.058;2023-03-02T04:11:43;-1.90;99.90
2611;DHT22;5612;51.134;17.058;2023-03-02T04:14:13;-1.80;99.90
2611;DHT22;5612;51.134;17.058;2023-03-02T04:16:44;-1.90;99.90
2611;DHT22;5612;51.134;17.058;2023-03-02T04:19:13;-1.80;99.90
2611;DHT22;5612;51.134;17.058;2023-03-02T04:21:45;-1.80;99.90
2611;DHT22;5612;51.134;17.058;2023-03-02T04:24:15;-1.80;99.90
2611;DHT22;5612;51.134;17.058;2023-03-02T04:26:45;-1.80;1.00
2611;DHT22;5612;51.134;17.058;2023-03-02T04:29:16;-1.80;1.00
2611;DHT22;5612;51.134;17.058;2023-03-02T04:31:46;-1.80;1.00
2611;DHT22;5612;51.134;17.058;2023-03-02T04:34:15;-1.70;99.90
2611;DHT22;5612;51.134;17.058;2023-03-02T04:36:44;-1.80;1.00
2611;DHT22;5612;51.134;17.058;2023-03-02T04:39:14;-1.80;1.00
2611;DHT22;5612;51.134;17.058;2023-03-02T04:41:44;-1.80;1.00
2611;DHT22;5612;51.134;17.058;2023-03-02T04:44:14;-1.80;99.90
2611;DHT22;5612;51.134;17.058;2023-03-02T04:46:46;-1.80;1.00
2611;DHT22;5612;51.134;17.058;2023-03-02T04:49:17;-1.80;1.00
2611;DHT22;5612;51.134;17.058;2023-03-02T04:51:48;-1.90;1.00
2611;DHT22;5612;51.134;17.058;2023-03-02T04:54:19;-2.00;1.00
2611;DHT22;5612;51.134;17.058;2023-03-02T04:56:48;-2.00;1.00
2611;DHT22;5612;51.134;17.058;2023-03-02T04:59:20;-2.10;99.90
2611;DHT22;5612;51.134;17.058;2023-03-02T05:01:52;-2.00;99.90
2611;DHT22;5612;51.134;17.058;2023-03-02T05:04:21;-1.90;74.60
2611;DHT22;5612;51.134;17.058;2023-03-02T05:06:50;-2.00;41.90
2611;DHT22;5612;51.134;17.058;2023-03-02T05:09:19;-2.00;99.90
2611;DHT22;5612;51.134;17.058;2023-03-02T05:11:54;-2.00;1.00
2611;DHT22;5612;51.134;17.058;2023-03-02T05:14:23;-2.00;1.00
2611;DHT22;5612;51.134;17.058;2023-03-02T05:16:54;-2.00;1.00
2611;DHT22;5612;51.134;17.058;2023-03-02T05:19:23;-2.00;42.40
2611;DHT22;5612;51.134;17.058;2023-03-02T05:21:52;-2.00;63.80
2611;DHT22;5612;51.134;17.058;2023-03-02T05:24:20;-2.10;1.00
2611;DHT22;5612;51.134;17.058;2023-03-02T05:26:49;-2.10;1.00
2611;DHT22;5612;51.134;17.058;2023-03-02T05:29:18;-2.20;99.90
2611;DHT22;5612;51.134;17.058;2023-03-02T05:31:47;-2.20;99.90
2611;DHT22;5612;51.134;17.058;2023-03-02T05:34:20;-2.20;1.00
2611;DHT22;5612;51.134;17.058;2023-03-02T05:36:49;-2.10;99.90
2611;DHT22;5612;51.134;17.058;2023-03-02T05:39:18;-2.10;1.00
2611;DHT22;5612;51.134;17.058;2023-03-02T05:41:47;-2.10;1.00
2611;DHT22;5612;51.134;17.058;2023-03-02T05:44:16;-1.90;1.00
2611;DHT22;5612;51.134;17.058;2023-03-02T05:46:45;-2.00;93.80
2611;DHT22;5612;51.134;17.058;2023-03-02T05:49:14;-2.00;66.50
2611;DHT22;5612;51.134;17.058;2023-03-02T05:51:44;-2.00;99.90
2611;DHT22;5612;51.134;17.058;2023-03-02T05:54:13;-2.10;1.00
2611;DHT22;5612;51.134;17.058;2023-03-02T05:56:42;-2.00;1.00
2611;DHT22;5612;51.134;17.058;2023-03-02T05:59:10;-1.90;99.90
2611;DHT22;5612;51.134;17.058;2023-03-02T06:01:39;-1.90;99.90
2611;DHT22;5612;51.134;17.058;2023-03-02T06:04:08;-1.80;99.90
2611;DHT22;5612;51.134;17.058;2023-03-02T06:06:36;-1.80;99.90
2611;DHT22;5612;51.134;17.058;2023-03-02T06:09:07;-1.70;99.90
2611;DHT22;5612;51.134;17.058;2023-03-02T06:11:36;-1.60;4.10
2611;DHT22;5612;51.134;17.058;2023-03-02T06:14:04;-1.70;1.00
2611;DHT22;5612;51.134;17.058;2023-03-02T06:16:33;-1.70;99.90
2611;DHT22;5612;51.134;17.058;2023-03-02T06:19:03;-1.70;99.90
2611;DHT22;5612;51.134;17.058;2023-03-02T06:21:32;-1.60;99.90
2611;DHT22;5612;51.134;17.058;2023-03-02T06:24:01;-1.40;99.90
2611;DHT22;5612;51.134;17.058;2023-03-02T06:26:31;-1.20;1.00
2611;DHT22;5612;51.134;17.058;2023-03-02T06:29:03;-1.10;1.00
2611;DHT22;5612;51.134;17.058;2023-03-02T06:31:33;-1.00;1.00
2611;DHT22;5612;51.134;17.058;2023-03-02T06:34:02;-0.90;99.90
2611;DHT22;5612;51.134;17.058;2023-03-02T06:36:31;-0.90;99.90
2611;DHT22;5612;51.134;17.058;2023-03-02T06:39:01;-0.70;99.90
2611;DHT22;5612;51.134;17.058;2023-03-02T06:41:31;-0.60;99.90
2611;DHT22;5612;51.134;17.058;2023-03-02T06:44:00;-0.50;68.90
2611;DHT22;5612;51.134;17.058;2023-03-02T06:46:29;-0.60;99.90
2611;DHT22;5612;51.134;17.058;2023-03-02T06:48:58;-0.60;99.90
2611;DHT22;5612;51.134;17.058;2023-03-02T06:51:27;-0.50;99.90
2611;DHT22;5612;51.134;17.058;2023-03-02T06:53:56;-0.40;99.90
2611;DHT22;5612;51.134;17.058;2023-03-02T06:56:25;-0.20;99.90
2611;DHT22;5612;51.134;17.058;2023-03-02T06:58:55;0.10;99.90
2611;DHT22;5612;51.134;17.058;2023-03-02T07:01:24;0.30;99.90
2611;DHT22;5612;51.134;17.058;2023-03-02T07:03:53;0.70;18.70
2611;DHT22;5612;51.134;17.058;2023-03-02T07:06:22;1.00;1.00
2611;DHT22;5612;51.134;17.058;2023-03-02T07:08:51;1.20;1.00
2611;DHT22;5612;51.134;17.058;2023-03-02T07:11:20;1.40;99.90
2611;DHT22;5612;51.134;17.058;2023-03-02T07:13:50;1.50;99.90
2611;DHT22;5612;51.134;17.058;2023-03-02T07:16:20;1.70;99.90
2611;DHT22;5612;51.134;17.058;2023-03-02T07:18:49;2.10;99.90
2611;DHT22;5612;51.134;17.058;2023-03-02T07:21:18;2.40;99.90
2611;DHT22;5612;51.134;17.058;2023-03-02T07:23:46;2.80;99.90
2611;DHT22;5612;51.134;17.058;2023-03-02T07:26:15;3.30;99.90
2611;DHT22;5612;51.134;17.058;2023-03-02T07:28:44;3.90;99.90
2611;DHT22;5612;51.134;17.058;2023-03-02T07:31:13;4.50;27.10
2611;DHT22;5612;51.134;17.058;2023-03-02T07:33:43;5.20;1.00
2611;DHT22;5612;51.134;17.058;2023-03-02T07:36:12;5.80;1.00
2611;DHT22;5612;51.134;17.058;2023-03-02T07:38:41;6.60;1.00
2611;DHT22;5612;51.134;17.058;2023-03-02T07:41:10;7.60;1.00
2611;DHT22;5612;51.134;17.058;2023-03-02T07:43:39;8.80;1.00
2611;DHT22;5612;51.134;17.058;2023-03-02T07:46:07;9.60;1.00
2611;DHT22;5612;51.134;17.058;2023-03-02T07:48:37;10.70;1.00
2611;DHT22;5612;51.134;17.058;2023-03-02T07:51:07;11.70;1.00
2611;DHT22;5612;51.134;17.058;2023-03-02T07:53:36;12.40;1.00
2611;DHT22;5612;51.134;17.058;2023-03-02T07:56:06;12.70;1.00
2611;DHT22;5612;51.134;17.058;2023-03-02T07:58:35;13.10;1.00
2611;DHT22;5612;51.134;17.058;2023-03-02T08:01:04;12.90;1.00
2611;DHT22;5612;51.134;17.058;2023-03-02T08:03:33;13.50;1.00
2611;DHT22;5612;51.134;17.058;2023-03-02T08:06:11;14.20;1.00
2611;DHT22;5612;51.134;17.058;2023-03-02T08:08:40;14.90;1.00
2611;DHT22;5612;51.134;17.058;2023-03-02T08:11:13;14.90;1.00
2611;DHT22;5612;51.134;17.058;2023-03-02T08:13:42;15.40;1.00
2611;DHT22;5612;51.134;17.058;2023-03-02T08:16:15;15.70;1.00
2611;DHT22;5612;51.134;17.058;2023-03-02T08:18:44;15.70;1.00
2611;DHT22;5612;51.134;17.058;2023-03-02T08:21:19;16.10;1.00
2611;DHT22;5612;51.134;17.058;2023-03-02T08:23:49;16.90;1.00
2611;DHT22;5612;51.134;17.058;2023-03-02T08:26:19;17.10;1.00
2611;DHT22;5612;51.134;17.058;2023-03-02T08:28:48;17.40;1.00
2611;DHT22;5612;51.134;17.058;2023-03-02T08:31:16;17.90;1.00
2611;DHT22;5612;51.134;17.058;2023-03-02T08:33:46;18.00;1.00
2611;DHT22;5612;51.134;17.058;2023-03-02T08:36:18;17.90;1.00
2611;DHT22;5612;51.134;17.058;2023-03-02T08:38:47;17.80;1.00
2611;DHT22;5612;51.134;17.058;2023-03-02T08:41:18;18.10;1.00
2611;DHT22;5612;51.134;17.058;2023-03-02T08:43:48;18.70;1.00
2611;DHT22;5612;51.134;17.058;2023-03-02T08:46:20;19.30;1.00
2611;DHT22;5612;51.134;17.058;2023-03-02T08:48:49;19.20;1.00
2611;DHT22;5612;51.134;17.058;2023-03-02T08:51:21;20.10;1.00
2611;DHT22;5612;51.134;17.058;2023-03-02T08:53:51;18.90;1.00
2611;DHT22;5612;51.134;17.058;2023-03-02T08:56:23;19.50;1.00
2611;DHT22;5612;51.134;17.058;2023-03-02T08:58:54;19.50;1.00
2611;DHT22;5612;51.134;17.058;2023-03-02T09:01:24;19.60;1.00
2611;DHT22;5612;51.134;17.058;2023-03-02T09:03:55;19.60;1.00
2611;DHT22;5612;51.134;17.058;2023-03-02T09:09:13;19.70;1.00
2611;DHT22;5612;51.134;17.058;2023-03-02T09:11:42;19.80;1.00
2611;DHT22;5612;51.134;17.058;2023-03-02T09:14:15;20.30;1.00
2611;DHT22;5612;51.134;17.058;2023-03-02T09:16:43;21.10;1.00
2611;DHT22;5612;51.134;17.058;2023-03-02T09:19:13;20.90;1.00
2611;DHT22;5612;51.134;17.058;2023-03-02T09:21:43;21.30;1.00
2611;DHT22;5612;51.134;17.058;2023-03-02T09:24:13;20.90;1.00
2611;DHT22;5612;51.134;17.058;2023-03-02T09:26:44;21.10;1.00
2611;DHT22;5612;51.134;17.058;2023-03-02T09:29:12;21.70;1.00
2611;DHT22;5612;51.134;17.058;2023-03-02T09:31:41;22.30;1.00
2611;DHT22;5612;51.134;17.058;2023-03-02T09:34:10;22.00;1.00
2611;DHT22;5612;51.134;17.058;2023-03-02T09:36:39;22.40;1.00
2611;DHT22;5612;51.134;17.058;2023-03-02T09:39:09;23.50;1.00
2611;DHT22;5612;51.134;17.058;2023-03-02T09:42:22;23.80;1.00
2611;DHT22;5612;51.134;17.058;2023-03-02T09:45:18;22.80;1.00
2611;DHT22;5612;51.134;17.058;2023-03-02T09:47:54;23.30;1.00
2611;DHT22;5612;51.134;17.058;2023-03-02T09:50:29;23.70;1.00
2611;DHT22;5612;51.134;17.058;2023-03-02T09:53:20;24.00;1.00
2611;DHT22;5612;51.134;17.058;2023-03-02T09:55:56;24.30;1.00
2611;DHT22;5612;51.134;17.058;2023-03-02T09:58:30;24.40;1.00
2611;DHT22;5612;51.134;17.058;2023-03-02T10:01:05;24.60;1.00
2611;DHT22;5612;51.134;17.058;2023-03-02T10:03:41;24.60;1.00
2611;DHT22;5612;51.134;17.058;2023-03-02T10:06:12;24.20;1.00
2611;DHT22;5612;51.134;17.058;2023-03-02T10:08:41;25.50;1.00
2611;DHT22;5612;51.134;17.058;2023-03-02T10:11:16;25.80;1.00
2611;DHT22;5612;51.134;17.058;2023-03-02T10:13:48;24.00;1.00
2611;DHT22;5612;51.134;17.058;2023-03-02T10:16:30;23.80;1.00
2611;DHT22;5612;51.134;17.058;2023-03-02T10:19:07;25.00;1.00
2611;DHT22;5612;51.134;17.058;2023-03-02T10:21:39;25.40;1.00
2611;DHT22;5612;51.134;17.058;2023-03-02T10:24:15;25.70;1.00
2611;DHT22;5612;51.134;17.058;2023-03-02T10:26:50;25.30;1.00
2611;DHT22;5612;51.134;17.058;2023-03-02T10:29:35;25.40;1.00
2611;DHT22;5612;51.134;17.058;2023-03-02T10:32:17;25.70;1.00
2611;DHT22;5612;51.134;17.058;2023-03-02T10:34:46;25.60;1.00
2611;DHT22;5612;51.134;17.058;2023-03-02T10:37:17;26.00;1.00
2611;DHT22;5612;51.134;17.058;2023-03-02T10:39:48;27.10;1.00
2611;DHT22;5612;51.134;17.058;2023-03-02T10:42:21;27.50;1.00
2611;DHT22;5612;51.134;17.058;2023-03-02T10:44:54;28.00;1.00
2611;DHT22;5612;51.134;17.058;2023-03-02T10:47:26;28.00;1.00
2611;DHT22;5612;51.134;17.058;2023-03-02T10:49:57;28.30;1.00
2611;DHT22;5612;51.134;17.058;2023-03-02T10:52:27;29.10;1.00
2611;DHT22;5612;51.134;17.058;2023-03-02T10:55:04;28.00;1.00
2611;DHT22;5612;51.134;17.058;2023-03-02T10:57:39;27.80;1.00
2611;DHT22;5612;51.134;17.058;2023-03-02T11:00:17;27.80;1.00
2611;DHT22;5612;51.134;17.058;2023-03-02T11:02:50;27.70;1.00
2611;DHT22;5612;51.134;17.058;2023-03-02T11:05:25;27.00;1.00
2611;DHT22;5612;51.134;17.058;2023-03-02T11:07:56;26.80;1.00
2611;DHT22;5612;51.134;17.058;2023-03-02T11:10:27;26.60;1.00
2611;DHT22;5612;51.134;17.058;2023-03-02T11:13:01;26.90;1.00
2611;DHT22;5612;51.134;17.058;2023-03-02T11:15:35;27.30;1.00
2611;DHT22;5612;51.134;17.058;2023-03-02T11:18:15;27.70;1.00
2611;DHT22;5612;51.134;17.058;2023-03-02T11:20:51;27.70;1.00
2611;DHT22;5612;51.134;17.058;2023-03-02T11:23:26;27.10;1.00
2611;DHT22;5612;51.134;17.058;2023-03-02T11:26:00;25.80;1.00
2611;DHT22;5612;51.134;17.058;2023-03-02T11:28:40;26.60;1.00
2611;DHT22;5612;51.134;17.058;2023-03-02T11:31:28;27.10;1.00
2611;DHT22;5612;51.134;17.058;2023-03-02T11:34:07;28.20;1.00
2611;DHT22;5612;51.134;17.058;2023-03-02T11:36:51;27.10;1.00
2611;DHT22;5612;51.134;17.058;2023-03-02T11:39:28;27.20;1.00
2611;DHT22;5612;51.134;17.058;2023-03-02T11:42:01;28.00;1.00
2611;DHT22;5612;51.134;17.058;2023-03-02T11:44:31;27.40;1.00
2611;DHT22;5612;51.134;17.058;2023-03-02T11:47:00;27.50;1.00
2611;DHT22;5612;51.134;17.058;2023-03-02T11:49:37;27.60;1.00
2611;DHT22;5612;51.134;17.058;2023-03-02T11:52:16;28.10;1.00
2611;DHT22;5612;51.134;17.058;2023-03-02T11:54:48;28.70;1.00
2611;DHT22;5612;51.134;17.058;2023-03-02T11:57:24;28.90;1.00
2611;DHT22;5612;51.134;17.058;2023-03-02T11:59:57;29.20;1.00
2611;DHT22;5612;51.134;17.058;2023-03-02T12:02:26;29.00;1.00
2611;DHT22;5612;51.134;17.058;2023-03-02T12:05:03;28.50;1.00
2611;DHT22;5612;51.134;17.058;2023-03-02T12:07:32;28.30;1.00
2611;DHT22;5612;51.134;17.058;2023-03-02T12:10:04;28.30;1.00
2611;DHT22;5612;51.134;17.058;2023-03-02T12:12:39;27.80;1.00
2611;DHT22;5612;51.134;17.058;2023-03-02T12:15:33;27.60;1.00
2611;DHT22;5612;51.134;17.058;2023-03-02T12:18:13;26.90;1.00
2611;DHT22;5612;51.134;17.058;2023-03-02T12:20:42;26.20;1.00
2611;DHT22;5612;51.134;17.058;2023-03-02T12:23:21;27.50;1.00
2611;DHT22;5612;51.134;17.058;2023-03-02T12:26:01;27.90;1.00
2611;DHT22;5612;51.134;17.058;2023-03-02T12:28:33;28.10;1.00
2611;DHT22;5612;51.134;17.058;2023-03-02T12:31:09;27.20;1.00
2611;DHT22;5612;51.134;17.058;2023-03-02T12:33:44;26.30;1.00
2611;DHT22;5612;51.134;17.058;2023-03-02T12:36:17;26.60;1.00
2611;DHT22;5612;51.134;17.058;2023-03-02T12:38:57;27.40;1.00
2611;DHT22;5612;51.134;17.058;2023-03-02T12:41:43;27.30;1.00
2611;DHT22;5612;51.134;17.058;2023-03-02T12:44:45;27.40;1.00
2611;DHT22;5612;51.134;17.058;2023-03-02T12:47:19;27.20;1.00
2611;DHT22;5612;51.134;17.058;2023-03-02T12:50:00;27.30;1.00
2611;DHT22;5612;51.134;17.058;2023-03-02T12:52:34;27.30;1.00
2611;DHT22;5612;51.134;17.058;2023-03-02T12:55:13;27.60;1.00
2611;DHT22;5612;51.134;17.058;2023-03-02T12:57:47;28.20;1.00
2611;DHT22;5612;51.134;17.058;2023-03-02T13:00:19;28.50;1.00
2611;DHT22;5612;51.134;17.058;2023-03-02T13:02:52;27.70;1.00
2611;DHT22;5612;51.134;17.058;2023-03-02T13:05:24;28.10;1.00
2611;DHT22;5612;51.134;17.058;2023-03-02T13:07:57;28.10;1.00
2611;DHT22;5612;51.134;17.058;2023-03-02T13:10:30;28.20;1.00
2611;DHT22;5612;51.134;17.058;2023-03-02T13:13:11;28.60;1.00
2611;DHT22;5612;51.134;17.058;2023-03-02T13:15:47;28.20;1.00
2611;DHT22;5612;51.134;17.058;2023-03-02T13:18:21;27.90;1.00
2611;DHT22;5612;51.134;17.058;2023-03-02T13:20:51;28.30;1.00
2611;DHT22;5612;51.134;17.058;2023-03-02T13:23:20;28.80;1.00
2611;DHT22;5612;51.134;17.058;2023-03-02T13:25:51;28.10;1.00
2611;DHT22;5612;51.134;17.058;2023-03-02T13:28:25;28.20;1.00
2611;DHT22;5612;51.134;17.058;2023-03-02T13:30:58;28.30;1.00
2611;DHT22;5612;51.134;17.058;2023-03-02T13:33:30;27.30;1.00
2611;DHT22;5612;51.134;17.058;2023-03-02T13:36:00;27.40;1.00
2611;DHT22;5612;51.134;17.058;2023-03-02T13:38:33;27.30;1.00
2611;DHT22;5612;51.134;17.058;2023-03-02T13:41:03;27.10;1.00
2611;DHT22;5612;51.134;17.058;2023-03-02T13:43:36;27.20;1.00
2611;DHT22;5612;51.134;17.058;2023-03-02T13:48:57;27.00;1.00
2611;DHT22;5612;51.134;17.058;2023-03-02T13:51:38;27.00;1.00
2611;DHT22;5612;51.134;17.058;2023-03-02T13:54:18;27.00;1.00
2611;DHT22;5612;51.134;17.058;2023-03-02T13:56:49;27.20;1.00
2611;DHT22;5612;51.134;17.058;2023-03-02T13:59:21;26.50;1.00
2611;DHT22;5612;51.134;17.058;2023-03-02T14:01:50;26.50;1.00
2611;DHT22;5612;51.134;17.058;2023-03-02T14:04:21;26.00;1.00
2611;DHT22;5612;51.134;17.058;2023-03-02T14:06:51;25.90;1.00
2611;DHT22;5612;51.134;17.058;2023-03-02T14:09:21;26.30;1.00
2611;DHT22;5612;51.134;17.058;2023-03-02T14:11:54;25.90;1.00
2611;DHT22;5612;51.134;17.058;2023-03-02T14:14:25;26.10;1.00
2611;DHT22;5612;51.134;17.058;2023-03-02T14:16:55;25.90;1.00
2611;DHT22;5612;51.134;17.058;2023-03-02T14:19:26;26.20;1.00
2611;DHT22;5612;51.134;17.058;2023-03-02T14:21:55;26.00;1.00
2611;DHT22;5612;51.134;17.058;2023-03-02T14:24:24;25.80;1.00
2611;DHT22;5612;51.134;17.058;2023-03-02T14:26:54;25.80;1.00
2611;DHT22;5612;51.134;17.058;2023-03-02T14:29:25;25.20;1.00
2611;DHT22;5612;51.134;17.058;2023-03-02T14:31:54;24.80;1.00
2611;DHT22;5612;51.134;17.058;2023-03-02T14:34:26;24.40;1.00
2611;DHT22;5612;51.134;17.058;2023-03-02T14:36:58;24.70;1.00
2611;DHT22;5612;51.134;17.058;2023-03-02T14:39:31;24.90;1.00
2611;DHT22;5612;51.134;17.058;2023-03-02T14:42:02;25.20;1.00
2611;DHT22;5612;51.134;17.058;2023-03-02T14:44:31;23.90;1.00
2611;DHT22;5612;51.134;17.058;2023-03-02T14:47:00;24.10;1.00
2611;DHT22;5612;51.134;17.058;2023-03-02T14:49:30;24.20;1.00
2611;DHT22;5612;51.134;17.058;2023-03-02T14:52:01;24.20;1.00
2611;DHT22;5612;51.134;17.058;2023-03-02T14:54:38;23.70;1.00
2611;DHT22;5612;51.134;17.058;2023-03-02T14:57:16;23.60;1.00
2611;DHT22;5612;51.134;17.058;2023-03-02T14:59:45;24.00;1.00
2611;DHT22;5612;51.134;17.058;2023-03-02T15:02:13;23.50;1.00
2611;DHT22;5612;51.134;17.058;2023-03-02T15:04:54;23.70;1.00
2611;DHT22;5612;51.134;17.058;2023-03-02T15:07:24;23.50;1.00
2611;DHT22;5612;51.134;17.058;2023-03-02T15:09:53;23.50;1.00
2611;DHT22;5612;51.134;17.058;2023-03-02T15:12:23;23.40;1.00
2611;DHT22;5612;51.134;17.058;2023-03-02T15:14:55;23.00;1.00
2611;DHT22;5612;51.134;17.058;2023-03-02T15:17:24;22.60;1.00
2611;DHT22;5612;51.134;17.058;2023-03-02T15:19:54;22.60;1.00
2611;DHT22;5612;51.134;17.058;2023-03-02T15:22:23;22.00;1.00
2611;DHT22;5612;51.134;17.058;2023-03-02T15:24:53;21.30;1.00
2611;DHT22;5612;51.134;17.058;2023-03-02T15:27:23;20.40;1.00
2611;DHT22;5612;51.134;17.058;2023-03-02T15:29:52;19.90;1.00
2611;DHT22;5612;51.134;17.058;2023-03-02T15:32:23;20.30;1.00
2611;DHT22;5612;51.134;17.058;2023-03-02T15:34:54;19.70;1.00
2611;DHT22;5612;51.134;17.058;2023-03-02T15:37:23;19.60;1.00
2611;DHT22;5612;51.134;17.058;2023-03-02T15:39:53;19.50;1.00
2611;DHT22;5612;51.134;17.058;2023-03-02T15:42:23;19.40;1.00
2611;DHT22;5612;51.134;17.058;2023-03-02T15:44:52;19.40;1.00
2611;DHT22;5612;51.134;17.058;2023-03-02T15:47:22;19.60;1.00
2611;DHT22;5612;51.134;17.058;2023-03-02T15:49:51;19.00;1.00
2611;DHT22;5612;51.134;17.058;2023-03-02T15:52:21;18.50;1.00
2611;DHT22;5612;51.134;17.058;2023-03-02T15:54:50;17.30;1.00
2611;DHT22;5612;51.134;17.058;2023-03-02T15:57:19;16.50;1.00
2611;DHT22;5612;51.134;17.058;2023-03-02T15:59:49;15.50;1.00
2611;DHT22;5612;51.134;17.058;2023-03-02T16:02:20;14.70;1.00
2611;DHT22;5612;51.134;17.058;2023-03-02T16:04:49;13.60;1.00
2611;DHT22;5612;51.134;17.058;2023-03-02T16:07:18;13.20;1.00
2611;DHT22;5612;51.134;17.058;2023-03-02T16:09:49;13.20;1.00
2611;DHT22;5612;51.134;17.058;2023-03-02T16:12:18;12.90;1.00
2611;DHT22;5612;51.134;17.058;2023-03-02T16:14:49;12.10;1.00
2611;DHT22;5612;51.134;17.058;2023-03-02T16:17:18;11.90;1.00
2611;DHT22;5612;51.134;17.058;2023-03-02T16:19:48;11.60;1.00
2611;DHT22;5612;51.134;17.058;2023-03-02T16:22:16;11.60;1.00
2611;DHT22;5612;51.134;17.058;2023-03-02T16:24:49;11.30;1.00
2611;DHT22;5612;51.134;17.058;2023-03-02T16:27:18;10.80;1.00
2611;DHT22;5612;51.134;17.058;2023-03-02T16:29:47;10.10;1.00
2611;DHT22;5612;51.134;17.058;2023-03-02T16:32:16;10.20;1.00